Time;durP1;ratioP1;P1;durP2;ratioP2;P2;SDS_P1;SDS_P2;PMS_P1;PMS_P2;Temp;Humidity;BMP_temperature;BMP_pressure;BME280_temperature;BME280_humidity;BME280_pressure;Samples;Min_cycle;Max_cycle;Signal;HPM_P1;HPM_P2
2021/06/18 00:01:34;;;;;;;5.00;3.30;;;20.70;58.10;;;20.76;41.61;94989.66;4826770;28;20225;-80
2021/06/18 00:05:09;;;;;;;5.30;3.55;;;20.70;58.30;;;20.74;41.71;94989.09;5131875;27;20975;-81
2021/06/18 00:07:36;;;;;;;5.45;3.80;;;20.70;58.70;;;20.73;41.92;94990.13;5084164;28;20547;-80
2021/06/18 00:10:09;;;;;;;4.80;3.70;;;20.70;58.70;;;20.72;42.22;94987.72;5074706;28;20235;-79
2021/06/18 00:12:36;;;;;;;4.57;3.42;;;20.60;59.30;;;20.71;41.76;94983.44;5076437;28;20203;-80
2021/06/18 00:15:06;;;;;;;4.38;3.65;;;20.60;58.80;;;20.70;41.94;94984.47;5053888;28;20222;-80
2021/06/18 00:17:33;;;;;;;3.83;3.42;;;20.60;59.10;;;20.64;41.74;94976.44;4987210;28;20209;-80
2021/06/18 00:19:59;;;;;;;4.30;3.90;;;20.60;58.80;;;20.66;42.06;94975.41;4926563;28;20231;-80
2021/06/18 00:22:26;;;;;;;6.85;3.67;;;20.60;59.00;;;20.67;42.49;94982.34;4776829;29;20228;-83
2021/06/18 00:27:03;;;;;;;5.63;3.67;;;20.60;59.20;;;20.58;42.29;94977.47;5150371;27;20556;-80
2021/06/18 00:29:29;;;;;;;5.47;3.72;;;20.60;59.00;;;20.56;42.45;94979.56;5098543;28;20224;-80
2021/06/18 00:31:56;;;;;;;4.78;4.00;;;20.60;59.20;;;20.50;42.56;94974.47;5074402;28;20231;-80
2021/06/18 00:34:23;;;;;;;4.93;3.55;;;20.50;59.20;;;20.46;42.46;94982.16;5043211;28;20220;-80
2021/06/18 00:36:49;;;;;;;4.40;3.65;;;20.50;59.30;;;20.42;42.65;94981.84;5015606;28;20196;-79
2021/06/18 00:39:16;;;;;;;4.80;3.78;;;20.50;59.70;;;;;;5007609;28;20236;-81
2021/06/18 00:41:42;;;;;;;5.88;3.83;;;20.40;59.60;;;20.30;42.85;94981.22;5038584;28;20356;-80
2021/06/18 00:44:09;;;;;;;5.78;3.72;;;20.40;59.60;;;20.23;42.94;94983.25;4915405;28;20257;-80
2021/06/18 00:49:11;;;;;;;4.43;3.80;;;20.30;59.70;;;20.13;42.92;94978.63;5140276;27;20404;-79
2021/06/18 00:51:39;;;;;;;4.95;4.13;;;20.20;59.90;;;20.07;42.98;94982.31;5101446;28;20531;-80
2021/06/18 00:54:06;;;;;;;5.63;3.95;;;20.20;60.10;;;20.03;43.25;94979.34;5072942;28;20229;-80
2021/06/18 00:56:34;;;;;;;4.32;3.92;;;20.10;60.10;;;19.97;43.62;94981.13;5060257;28;20209;-80
2021/06/18 00:59:01;;;;;;;4.00;3.60;;;20.10;60.20;;;19.94;43.92;94986.94;5037629;28;20285;-79
2021/06/18 01:01:27;;;;;;;5.28;3.85;;;20.00;60.20;;;19.92;43.38;94981.06;4962058;28;20204;-80
2021/06/18 01:03:54;;;;;;;4.57;3.90;;;20.00;60.30;;;19.88;43.96;94981.81;4867372;29;20233;-80
2021/06/18 01:06:29;;;;;;;5.28;4.03;;;20.00;60.50;;;19.87;43.63;94982.88;4740000;29;20290;-80
2021/06/18 01:09:13;;;;;;;4.78;4.07;;;19.90;60.80;;;19.82;44.04;94976.41;5140132;27;20331;-80
2021/06/18 01:12:05;;;;;;;7.40;4.20;;;19.90;61.00;;;19.77;43.75;94979.00;5083021;28;20210;-80
2021/06/18 01:15:08;;;;;;;4.45;3.65;;;19.80;60.70;;;19.72;44.33;94981.59;5049156;28;20258;-81
2021/06/18 01:18:12;;;;;;;4.55;3.78;;;19.80;61.10;;;19.63;43.98;94972.44;5054735;28;20199;-80
2021/06/18 01:21:02;;;;;;;4.85;3.60;;;19.80;61.00;;;19.60;44.11;94971.06;4905891;29;20407;-80
2021/06/18 01:23:30;;;;;;;4.30;3.85;;;19.70;61.10;;;19.56;43.77;94972.63;4777618;29;20388;-79
2021/06/18 01:26:23;;;;;;;5.65;4.13;;;19.70;60.70;;;19.52;44.61;94968.84;4695070;29;20232;-82
2021/06/18 01:29:03;;;;;;;4.68;4.10;;;19.60;61.40;;;19.48;44.43;94973.88;5141074;27;20650;-80
2021/06/18 01:31:50;;;;;;;5.05;4.18;;;19.60;61.00;;;19.42;44.54;94977.50;5108406;28;20216;-80
2021/06/18 01:34:29;;;;;;;7.25;4.00;;;19.50;61.00;;;19.39;44.50;94975.31;5068248;28;20231;-80
2021/06/18 01:37:07;;;;;;;5.15;4.20;;;19.50;61.60;;;19.36;45.27;94978.50;5019402;28;20201;-80
2021/06/18 01:39:35;;;;;;;4.25;3.85;;;19.50;61.70;;;19.28;44.96;94976.25;5002982;28;20223;-80
2021/06/18 01:42:07;;;;;;;4.55;4.15;;;19.50;61.30;;;19.24;44.93;94991.88;4968197;28;20230;-79
2021/06/18 01:44:36;;;;;;;4.70;4.20;;;19.40;61.50;;;19.18;45.10;94998.97;4824901;29;20238;-80
2021/06/18 01:50:26;;;;;;;4.25;3.85;;;19.30;61.80;;;19.05;45.49;95001.97;5129814;27;20388;-80
2021/06/18 01:53:08;;;;;;;4.43;4.00;;;19.30;61.80;;;19.01;45.30;95000.84;5106541;28;20661;-79
2021/06/18 01:55:36;;;;;;;4.30;3.90;;;19.20;62.30;;;19.00;45.27;94999.22;5088465;28;20300;-80
2021/06/18 01:58:05;;;;;;;5.45;3.85;;;19.10;61.80;;;18.98;45.54;95006.63;5057183;28;20231;-80
2021/06/18 02:00:39;;;;;;;3.72;3.42;;;19.10;62.10;;;18.95;45.62;95002.63;5014989;28;20213;-79
2021/06/18 02:03:12;;;;;;;4.25;3.72;;;19.00;61.90;;;18.95;45.60;95002.63;4954961;28;20212;-80
2021/06/18 02:05:40;;;;;;;5.30;4.18;;;19.00;62.60;;;18.94;45.71;95010.84;4946255;28;20242;-79
2021/06/18 02:08:08;;;;;;;4.07;3.67;;;19.00;62.30;;;18.92;45.69;95005.78;4760453;29;20222;-80
2021/06/18 02:12:51;;;;;;;4.75;4.28;;;19.00;62.70;;;18.84;45.64;94990.97;5150354;27;20556;-80
2021/06/18 02:15:20;;;;;;;4.35;3.95;;;19.00;62.20;;;18.80;45.50;94989.06;5071831;28;20225;-80
2021/06/18 02:17:49;;;;;;;4.43;4.03;;;19.00;62.60;;;18.81;45.96;94985.34;5109506;28;20702;-79
2021/06/18 02:20:16;;;;;;;4.53;3.90;;;18.90;62.60;;;18.77;46.10;94985.03;5129024;27;20224;-79
2021/06/18 02:22:47;;;;;;;4.85;3.90;;;18.90;62.60;;;18.76;45.96;94980.78;5113897;27;20197;-80
2021/06/18 02:25:15;;;;;;;7.20;4.30;;;18.90;62.70;;;18.72;46.17;94985.78;5088940;28;20222;-80
2021/06/18 02:27:43;;;;;;;5.38;4.70;;;18.80;62.60;;;18.71;46.68;94980.69;4985808;28;20304;-79
2021/06/18 02:30:14;;;;;;;5.30;4.38;;;18.80;62.50;;;18.69;46.49;94980.13;4875654;29;20757;-82
2021/06/18 02:34:17;;;;;;;4.65;4.05;;;18.80;62.50;;;18.62;46.28;94979.47;5139036;27;20973;-80
2021/06/18 02:36:45;;;;;;;4.68;3.95;;;18.70;62.50;;;18.59;46.85;94982.59;5125225;28;20207;-79
2021/06/18 02:39:12;;;;;;;6.40;4.70;;;18.70;62.40;;;18.55;46.86;94983.09;5089052;28;20261;-79
2021/06/18 02:41:40;;;;;;;4.97;4.20;;;18.70;62.50;;;18.51;46.65;94987.25;5083155;28;20206;-79
2021/06/18 02:44:07;;;;;;;4.63;4.22;;;18.60;62.30;;;18.49;46.89;94993.88;5068351;28;20842;-81
2021/06/18 02:46:46;;;;;;;5.18;4.28;;;18.60;62.60;;;18.43;47.41;94993.00;5039572;28;20619;-79
2021/06/18 02:49:16;;;;;;;4.80;3.78;;;18.60;62.80;;;18.43;47.07;94993.00;4940684;28;20559;-79
2021/06/18 02:52:04;;;;;;;4.80;4.30;;;18.60;63.00;;;18.39;47.40;95002.47;4828878;29;20230;-80
2021/06/18 02:56:46;;;;;;;4.93;4.20;;;18.50;63.40;;;18.31;46.87;95002.84;5150642;27;20829;-80
2021/06/18 02:59:37;;;;;;;4.60;4.00;;;18.50;63.40;;;18.28;46.95;95008.63;5090667;27;20224;-80
2021/06/18 03:02:08;;;;;;;4.38;3.97;;;18.50;63.30;;;18.27;47.35;95005.16;5093614;28;20198;-79
2021/06/18 03:04:38;;;;;;;6.78;4.40;;;18.40;63.20;;;18.27;47.44;95013.13;5049169;28;20272;-80
2021/06/18 03:07:13;;;;;;;6.07;4.32;;;18.50;63.40;;;18.28;47.47;95009.44;5019686;28;20201;-79
2021/06/18 03:09:49;;;;;;;5.72;4.40;;;18.40;63.90;;;18.27;47.60;95010.47;5002886;28;20231;-80
2021/06/18 03:12:19;;;;;;;4.88;4.38;;;18.40;63.70;;;18.29;47.48;95005.75;4926814;28;20215;-80
2021/06/18 03:16:12;;;;;;;4.60;3.97;;;18.40;63.80;;;18.27;47.21;95004.38;5150159;27;20642;-79
2021/06/18 03:18:43;;;;;;;5.15;4.05;;;18.30;63.40;;;18.28;47.65;94998.03;5123329;27;20216;-79
2021/06/18 03:21:13;;;;;;;4.50;4.10;;;18.30;63.80;;;18.29;47.66;95003.09;5067718;28;20264;-80
2021/06/18 03:23:43;;;;;;;4.95;4.45;;;18.40;63.70;;;18.31;47.76;95006.31;5089076;28;20451;-80
2021/06/18 03:26:10;;;;;;;5.07;4.55;;;18.40;64.00;;;18.32;47.91;95001.81;5056469;28;20212;-79
2021/06/18 03:28:38;;;;;;;5.22;4.72;;;18.30;63.90;;;18.34;47.76;95002.38;5026598;28;20256;-79
2021/06/18 03:31:08;;;;;;;5.78;5.18;;;18.40;64.00;;;18.32;47.96;95002.63;4946424;28;21292;-79
2021/06/18 03:33:35;;;;;;;4.28;3.88;;;18.40;64.10;;;18.34;47.69;94999.72;4870201;29;21132;-79
2021/06/18 03:38:23;;;;;;;4.60;4.13;;;18.40;64.00;;;18.37;47.98;95008.03;5146922;27;20345;-80
2021/06/18 03:40:50;;;;;;;6.35;4.65;;;18.50;64.20;;;18.38;47.99;95004.31;5108270;28;20205;-80
2021/06/18 03:43:17;;;;;;;5.15;4.10;;;18.40;64.10;;;18.41;48.33;95003.03;5112839;28;20266;-80
2021/06/18 03:45:47;;;;;;;4.53;4.13;;;18.50;64.30;;;18.44;48.28;95004.41;5083500;28;20202;-80
2021/06/18 03:48:16;;;;;;;4.85;4.03;;;18.40;64.40;;;18.47;48.34;95001.25;5044760;28;20215;-80
2021/06/18 03:50:44;;;;;;;4.95;4.45;;;18.40;64.60;;;18.49;48.22;95004.50;5007188;28;20214;-79
2021/06/18 03:53:11;;;;;;;5.28;4.40;;;18.40;64.40;;;18.52;48.46;95002.16;4931909;28;20207;-80
2021/06/18 03:55:38;;;;;;;5.90;5.20;;;18.40;64.60;;;18.55;48.55;94999.03;4818320;29;20597;-79
2021/06/18 04:00:07;;;;;;;5.07;4.57;;;18.50;64.70;;;18.62;48.37;94993.56;5132407;27;20569;-79
2021/06/18 04:02:41;;;;;;;6.13;5.20;;;18.60;64.90;;;18.69;48.45;94991.56;5065403;28;20259;-79
2021/06/18 04:05:14;;;;;;;5.95;5.07;;;18.60;64.90;;;18.73;48.67;94991.88;5075332;28;20324;-80
2021/06/18 04:07:47;;;;;;;6.68;4.82;;;18.60;65.40;;;18.79;48.97;94988.25;5093209;28;20258;-79
2021/06/18 04:10:17;;;;;;;5.03;4.53;;;18.60;65.50;;;18.84;49.08;94998.16;5036713;28;20230;-79
2021/06/18 04:12:48;;;;;;;7.63;5.00;;;18.70;65.50;;;18.90;49.22;94999.06;5004652;28;20217;-79
2021/06/18 04:15:17;;;;;;;6.20;5.28;;;18.70;65.20;;;18.95;48.80;94993.84;4935570;28;20231;-80
2021/06/18 04:17:45;;;;;;;5.80;5.22;;;18.80;65.30;;;19.02;49.25;94997.94;4817452;29;20233;-80
2021/06/18 04:20:23;;;;;;;5.70;5.13;;;18.80;65.60;;;19.13;49.52;94992.78;5129952;27;20541;-80
2021/06/18 04:22:52;;;;;;;8.80;5.07;;;18.90;65.90;;;19.20;49.80;94996.88;5089795;28;20233;-80
2021/06/18 04:25:20;;;;;;;4.95;4.45;;;19.00;66.00;;;19.29;49.65;94991.94;5081159;28;20237;-81
2021/06/18 04:27:47;;;;;;;5.90;5.22;;;19.00;65.90;;;19.38;49.58;94991.53;5018683;28;20676;-81
2021/06/18 04:30:16;;;;;;;5.82;5.03;;;19.10;65.90;;;19.48;49.28;94989.00;4995282;28;20221;-79
2021/06/18 04:32:45;;;;;;;6.22;5.18;;;19.10;66.10;;;19.56;49.62;94987.78;4939909;28;20625;-80
2021/06/18 04:35:12;;;;;;;6.68;5.25;;;19.30;66.20;;;19.66;49.13;94985.25;4916574;29;20243;-82
2021/06/18 04:37:41;;;;;;;5.85;5.20;;;19.30;66.00;;;19.73;49.95;94982.41;4830409;29;20263;-80
2021/06/18 04:42:18;;;;;;;5.93;5.30;;;19.40;66.20;;;19.85;49.14;94983.13;5150442;27;21131;-80
2021/06/18 04:44:44;;;;;;;6.57;5.57;;;19.60;66.00;;;19.92;49.37;94986.41;5105245;27;20230;-81
2021/06/18 04:47:11;;;;;;;8.07;5.53;;;19.70;66.10;;;19.99;49.53;94983.53;5091311;28;20208;-81
2021/06/18 04:49:38;;;;;;;6.35;5.68;;;19.70;66.00;;;20.06;49.31;94989.47;5074143;28;20230;-80
2021/06/18 04:52:07;;;;;;;6.68;5.75;;;19.70;66.10;;;20.13;49.79;94989.28;5063971;28;20294;-80
2021/06/18 04:54:33;;;;;;;8.57;5.40;;;19.80;66.40;;;20.19;49.52;94984.81;4979216;28;20239;-81
2021/06/18 04:57:00;;;;;;;7.63;5.30;;;19.90;66.40;;;20.26;49.69;94991.56;4924972;28;20724;-81
2021/06/18 04:59:26;;;;;;;5.88;5.38;;;19.90;66.30;;;20.32;49.88;94992.41;4864836;28;20233;-80
2021/06/18 05:04:14;;;;;;;7.28;5.60;;;20.00;66.30;;;20.48;49.77;95002.16;5139758;27;20570;-81
2021/06/18 05:06:42;;;;;;;5.88;5.28;;;20.10;67.20;;;20.55;49.66;95003.81;5086054;28;20206;-80
2021/06/18 05:09:09;;;;;;;5.55;5.05;;;20.20;66.40;;;20.62;49.45;94997.22;5103764;28;20786;-81
2021/06/18 05:11:36;;;;;;;6.25;5.65;;;20.30;66.40;;;20.71;49.63;95000.22;5067172;28;20803;-81
2021/06/18 05:14:03;;;;;;;6.65;5.63;;;20.40;66.40;;;20.79;49.69;94993.66;5040429;28;20247;-81
2021/06/18 05:16:29;;;;;;;5.57;5.07;;;20.40;66.40;;;20.86;49.27;94996.91;4967689;28;20224;-81
2021/06/18 05:18:56;;;;;;;6.55;5.47;;;20.50;66.40;;;20.95;49.61;95000.72;4935031;28;20264;-81
2021/06/18 05:21:22;;;;;;;5.95;5.35;;;20.60;66.50;;;21.04;49.98;95001.03;4732831;29;21424;-81
2021/06/18 05:25:55;;;;;;;5.55;4.95;;;20.60;66.50;;;21.19;49.61;94999.53;5150478;27;20634;-81
2021/06/18 05:28:22;;;;;;;6.10;5.43;;;20.80;66.40;;;21.28;49.34;94995.34;5106370;27;20725;-80
2021/06/18 05:30:48;;;;;;;6.30;5.70;;;20.90;66.50;;;21.39;49.87;94997.00;5088883;28;20306;-80
2021/06/18 05:33:15;;;;;;;7.93;5.05;;;20.90;66.60;;;21.48;49.30;94993.84;5080512;28;20197;-81
2021/06/18 05:35:44;;;;;;;5.90;4.90;;;21.00;66.70;;;21.58;49.63;95000.09;5082634;28;20728;-81
2021/06/18 05:38:12;;;;;;;6.03;5.30;;;21.10;66.80;;;21.66;50.01;94993.44;5008628;28;20618;-82
2021/06/18 05:40:42;;;;;;;6.30;5.60;;;21.30;66.90;;;21.82;49.55;94994.31;4926764;28;20643;-82
2021/06/18 05:43:11;;;;;;;6.18;5.57;;;21.40;66.90;;;21.96;49.35;94994.63;4841617;29;20225;-81
2021/06/18 05:47:36;;;;;;;6.03;4.85;;;21.40;67.00;;;22.16;49.58;95007.25;5150368;27;21132;-81
2021/06/18 05:50:05;;;;;;;7.60;4.97;;;21.60;66.90;;;22.30;49.84;95007.56;5086536;28;20270;-82
2021/06/18 05:52:33;;;;;;;5.43;4.93;;;21.70;66.90;;;22.46;49.15;95005.75;5057717;28;20229;-81
2021/06/18 05:54:59;;;;;;;7.25;5.32;;;21.90;66.70;;;22.59;49.56;95004.41;5110494;27;20220;-81
2021/06/18 05:57:26;;;;;;;7.55;5.47;;;22.00;66.70;;;22.72;49.05;95008.47;5099380;28;20205;-81
2021/06/18 05:59:53;;;;;;;6.88;5.47;;;22.10;66.80;;;22.85;48.58;95005.25;5033743;28;20228;-81
2021/06/18 06:02:19;;;;;;;6.93;5.10;;;22.20;66.50;;;23.01;48.74;95011.41;4984214;28;20208;-82
2021/06/18 06:04:46;;;;;;;7.47;5.57;;;22.30;66.50;;;23.15;48.33;95010.88;4885840;28;20242;-81
2021/06/18 06:09:04;;;;;;;9.02;5.32;;;22.50;66.10;;;23.36;48.54;95002.84;5141144;27;20649;-81
2021/06/18 06:11:32;;;;;;;6.88;5.40;;;22.70;65.80;;;23.49;48.31;95002.28;5125278;28;20213;-81
2021/06/18 06:14:02;;;;;;;6.32;4.95;;;22.80;65.70;;;23.60;47.91;94993.13;5106518;28;20235;-81
2021/06/18 06:16:31;;;;;;;5.72;5.05;;;22.90;65.80;;;23.73;47.56;94994.44;5043196;28;20658;-81
2021/06/18 06:18:58;;;;;;;5.32;4.80;;;23.10;65.90;;;23.83;47.53;94996.28;4945935;28;20955;-81
2021/06/18 06:21:24;;;;;;;6.18;4.70;;;23.20;66.00;;;23.96;47.54;94994.91;4929728;28;20215;-81
2021/06/18 06:23:51;;;;;;;7.18;4.75;;;23.30;65.60;;;24.08;47.01;94995.41;4871316;29;20237;-81
2021/06/18 06:26:20;;;;;;;5.82;5.20;;;23.40;65.30;;;24.18;47.05;94999.94;4785799;29;20215;-82
2021/06/18 06:31:23;;;;;;;5.50;5.00;;;23.50;65.20;;;24.41;46.95;94997.63;5150500;27;21173;-82
2021/06/18 06:33:51;;;;;;;6.50;5.35;;;23.70;65.00;;;24.52;46.17;94995.69;5111717;27;20259;-81
2021/06/18 06:36:18;;;;;;;5.47;4.82;;;23.80;64.70;;;24.62;46.10;94998.31;5109657;28;20646;-81
2021/06/18 06:38:44;;;;;;;5.07;4.57;;;23.90;64.80;;;24.69;46.03;94998.81;5061427;28;20694;-81
2021/06/18 06:41:12;;;;;;;6.25;4.80;;;24.00;64.70;;;24.73;45.93;94991.81;5022083;28;20228;-82
2021/06/18 06:43:38;;;;;;;5.72;4.78;;;24.10;64.60;;;24.84;45.83;94992.56;4987182;28;20240;-81
2021/06/18 06:46:05;;;;;;;5.32;4.32;;;24.20;64.40;;;24.93;45.71;94998.13;4950313;28;20643;-81
2021/06/18 06:48:31;;;;;;;5.15;4.57;;;24.30;64.40;;;25.01;46.06;94994.00;4763033;29;20604;-82
2021/06/18 06:53:21;;;;;;;5.45;4.95;;;24.40;64.40;;;25.18;45.75;94997.09;5147382;27;21026;-82
2021/06/18 06:55:47;;;;;;;6.80;4.72;;;24.50;64.30;;;25.26;45.81;94985.72;5108086;28;20200;-81
2021/06/18 06:58:14;;;;;;;5.45;4.78;;;24.60;64.30;;;25.37;45.84;94985.66;5101104;28;20233;-81
2021/06/18 07:00:41;;;;;;;5.55;4.80;;;24.70;64.20;;;25.45;45.64;94987.75;5046109;28;20216;-81
2021/06/18 07:03:07;;;;;;;5.63;4.97;;;24.80;64.20;;;25.56;45.30;94985.72;4974366;28;20226;-81
2021/06/18 07:05:34;;;;;;;8.68;4.50;;;24.90;63.90;;;25.65;45.13;94992.09;4909214;29;20244;-82
2021/06/18 07:08:18;;;;;;;6.40;4.40;;;24.90;63.90;;;25.74;45.14;94986.88;4911634;29;20627;-81
2021/06/18 07:10:45;;;;;;;5.10;4.63;;;25.10;63.90;;;25.84;45.18;94983.28;4794108;29;20582;-82
2021/06/18 07:15:49;;;;;;;4.88;4.35;;;25.10;63.90;;;26.03;44.91;94986.00;5150335;27;20336;-82
2021/06/18 07:18:16;;;;;;;5.57;4.03;;;25.30;63.70;;;26.12;44.79;94983.50;5085490;28;20201;-82
2021/06/18 07:20:43;;;;;;;5.07;4.50;;;25.40;63.70;;;26.21;44.53;94979.09;5087659;28;20205;-82
2021/06/18 07:23:10;;;;;;;4.82;4.30;;;25.50;63.40;;;26.27;44.45;94986.00;5096062;28;20703;-81
2021/06/18 07:25:37;;;;;;;4.88;4.15;;;25.50;63.20;;;26.34;44.05;94983.75;5064114;28;20212;-81
2021/06/18 07:28:06;;;;;;;7.03;5.10;;;25.60;63.10;;;26.42;44.53;94990.34;4999548;28;20209;-82
2021/06/18 07:30:35;;;;;;;5.10;4.60;;;25.70;63.10;;;26.49;43.89;94987.31;4855727;29;20665;-83
2021/06/18 07:33:03;;;;;;;6.75;4.78;;;25.80;63.00;;;26.54;44.05;94979.16;4706169;30;20223;-82
2021/06/18 07:37:28;;;;;;;5.30;4.78;;;25.80;62.90;;;26.65;43.53;94982.50;5150387;27;20631;-82
2021/06/18 07:39:55;;;;;;;5.45;4.95;;;26.00;62.50;;;26.71;43.45;94981.31;5111567;27;20219;-81
2021/06/18 07:42:30;;;;;;;5.22;4.60;;;26.00;62.50;;;26.78;43.71;94980.97;5074263;28;20201;-82
2021/06/18 07:44:57;;;;;;;5.15;4.63;;;26.10;62.50;;;26.86;43.52;94974.94;5089039;28;20310;-82
2021/06/18 07:47:25;;;;;;;5.20;4.50;;;26.20;62.50;;;26.93;43.67;94974.56;5001468;28;20226;-82
2021/06/18 07:49:52;;;;;;;4.90;4.43;;;26.20;62.30;;;27.00;43.55;94974.97;4910931;29;20241;-82
2021/06/18 07:52:19;;;;;;;5.90;5.00;;;26.30;62.40;;;27.08;43.36;94981.56;4853959;29;20212;-82
2021/06/18 07:54:46;;;;;;;6.78;4.18;;;26.30;62.20;;;27.17;43.07;94983.28;4809878;29;20281;-82
2021/06/18 07:59:40;;;;;;;5.18;4.43;;;26.40;62.30;;;27.36;43.04;94981.63;5135998;27;21154;-82
2021/06/18 08:02:06;;;;;;;5.32;4.60;;;26.60;62.10;;;27.42;42.83;94973.19;5107936;28;20261;-83
2021/06/18 08:04:48;;;;;;;4.93;4.53;;;26.70;61.90;;;27.49;42.46;94975.50;5091047;28;20239;-82
2021/06/18 08:07:15;;;;;;;5.07;4.57;;;26.70;61.80;;;27.52;42.41;94960.63;5083200;28;20289;-81
2021/06/18 08:09:41;;;;;;;7.05;4.40;;;26.80;61.70;;;27.59;42.31;94978.00;5021595;28;20554;-82
2021/06/18 08:12:09;;;;;;;5.82;4.63;;;26.90;61.70;;;27.65;42.66;94978.69;4999529;28;20202;-82
2021/06/18 08:14:35;;;;;;;7.68;4.22;;;26.90;61.80;;;27.75;42.38;94975.78;4911827;28;20243;-82
2021/06/18 08:17:02;;;;;;;7.00;4.43;;;27.00;61.90;;;27.83;42.81;94982.41;4869203;29;20794;-81
2021/06/18 08:22:07;;;;;;;6.50;5.07;;;27.10;61.80;;;28.01;41.91;94958.31;5150370;27;20899;-82
2021/06/18 08:24:34;;;;;;;5.20;4.70;;;27.20;61.10;;;28.09;42.16;94971.91;5098558;28;20673;-82
2021/06/18 08:27:03;;;;;;;5.20;4.30;;;27.30;61.10;;;28.17;41.47;94966.91;5089765;28;20262;-83
2021/06/18 08:29:30;;;;;;;4.80;4.30;;;27.40;60.70;;;28.21;41.79;94963.31;5077737;28;20570;-82
2021/06/18 08:31:56;;;;;;;7.28;4.38;;;27.40;60.90;;;28.27;41.38;94963.97;5068374;28;20214;-82
2021/06/18 08:34:23;;;;;;;4.85;4.35;;;27.50;60.40;;;28.33;40.95;94961.97;4999963;28;20262;-82
2021/06/18 08:36:50;;;;;;;4.45;4.05;;;27.50;60.30;;;28.43;41.27;94959.84;4931582;28;20229;-82
2021/06/18 08:39:16;;;;;;;6.05;4.68;;;27.60;61.30;;;28.50;40.44;94956.69;4871201;29;20264;-82
2021/06/18 08:44:20;;;;;;;6.47;4.38;;;27.70;60.00;;;28.70;40.62;94958.19;5139123;27;21164;-82
2021/06/18 08:46:47;;;;;;;4.90;4.40;;;27.80;59.90;;;28.78;40.87;94964.72;5085481;28;20207;-82
2021/06/18 08:49:14;;;;;;;5.95;4.22;;;27.90;60.00;;;28.88;40.25;94952.88;5072904;28;20261;-82
2021/06/18 08:51:41;;;;;;;6.72;4.55;;;28.00;59.60;;;28.97;39.64;94952.97;5029863;28;20225;-81
2021/06/18 08:54:08;;;;;;;5.25;4.20;;;28.10;59.20;;;29.03;39.54;94963.31;4938959;28;20631;-81
2021/06/18 08:56:34;;;;;;;8.13;4.30;;;28.10;59.00;;;29.11;39.87;94963.69;4929985;28;20215;-82
2021/06/18 08:59:01;;;;;;;4.47;4.07;;;28.30;59.00;;;29.18;39.43;94970.22;4883827;29;20646;-82
2021/06/18 09:01:27;;;;;;;4.60;4.20;;;28.30;58.50;;;29.23;39.84;94962.00;4765904;29;20764;-82
2021/06/18 09:06:00;;;;;;;5.00;4.50;;;28.40;58.70;;;29.29;38.92;94962.66;5150444;27;20639;-82
2021/06/18 09:08:27;;;;;;;15.85;7.78;;;28.50;58.00;;;29.31;38.45;94955.06;5112002;27;20225;-82
2021/06/18 09:10:54;;;;;;;6.35;5.40;;;28.50;57.40;;;29.40;38.80;94960.53;5109470;28;20637;-82
2021/06/18 09:13:32;;;;;;;5.07;4.50;;;28.60;57.80;;;29.46;38.49;94961.19;5082415;28;20232;-82
2021/06/18 09:15:59;;;;;;;5.22;4.45;;;28.70;57.80;;;29.53;38.46;94959.63;5056814;28;20230;-83
2021/06/18 09:18:40;;;;;;;7.38;3.90;;;28.70;58.00;;;29.62;38.79;94956.16;4986204;28;20240;-82
2021/06/18 09:21:20;;;;;;;5.15;4.53;;;28.80;57.70;;;29.68;38.63;94947.59;4910283;29;20222;-82
2021/06/18 09:24:45;;;;;;;6.40;4.22;;;28.80;57.40;;;29.77;38.63;94947.63;5135822;27;20974;-82
2021/06/18 09:27:12;;;;;;;4.65;4.25;;;29.00;57.30;;;29.83;37.92;94943.66;5062504;28;20206;-83
2021/06/18 09:29:41;;;;;;;4.90;4.40;;;29.00;57.10;;;29.91;38.27;94941.34;5070991;28;20269;-83
2021/06/18 09:32:12;;;;;;;4.70;4.30;;;29.10;57.30;;;29.99;38.40;94941.34;5037438;28;20215;-82
2021/06/18 09:35:01;;;;;;;6.65;4.60;;;29.10;57.20;;;30.10;37.82;94944.56;4989331;28;20227;-82
2021/06/18 09:37:39;;;;;;;4.57;4.18;;;29.20;57.10;;;30.18;37.65;94932.94;4878613;29;20286;-82
2021/06/18 09:40:19;;;;;;;5.57;4.32;;;29.30;57.20;;;30.28;37.52;94945.34;4800069;29;20298;-83
2021/06/18 09:45:24;;;;;;;5.45;4.32;;;29.40;56.80;;;30.41;38.11;94950.94;5130300;27;20417;-82
2021/06/18 09:47:52;;;;;;;4.68;4.28;;;29.50;56.70;;;30.46;38.01;94946.16;5071586;28;20220;-82
2021/06/18 09:50:27;;;;;;;5.55;4.57;;;29.60;56.70;;;30.55;36.99;94951.59;5106335;28;20371;-83
2021/06/18 09:53:16;;;;;;;4.70;3.97;;;29.60;56.10;;;30.62;37.32;94948.41;5038457;28;20207;-82
2021/06/18 09:55:47;;;;;;;5.63;4.50;;;29.80;56.30;;;30.67;36.84;94953.66;4941229;28;20208;-82
2021/06/18 09:58:32;;;;;;;8.20;4.65;;;29.80;55.60;;;30.72;36.72;94950.78;4897662;29;20219;-82
2021/06/18 10:01:31;;;;;;;5.28;4.15;;;29.90;56.00;;;30.79;37.35;94955.75;4781567;29;20246;-82
2021/06/18 10:06:35;;;;;;;6.10;4.32;;;29.90;55.90;;;30.94;36.71;94949.78;5150388;27;20951;-83
2021/06/18 10:09:04;;;;;;;4.68;4.28;;;30.00;55.50;;;31.02;36.76;94960.94;5071247;28;20719;-83
2021/06/18 10:11:33;;;;;;;6.95;4.50;;;30.10;55.10;;;31.08;36.74;94955.06;5082180;28;20607;-82
2021/06/18 10:14:00;;;;;;;6.60;4.60;;;30.20;55.30;;;31.13;35.92;94952.19;5110448;27;20224;-83
2021/06/18 10:16:28;;;;;;;4.95;4.50;;;30.20;54.80;;;31.15;36.38;94949.16;5086422;28;20215;-82
2021/06/18 10:18:59;;;;;;;10.02;4.95;;;30.30;54.80;;;31.23;36.14;94952.97;5016693;28;20306;-82
2021/06/18 10:21:30;;;;;;;7.05;4.90;;;30.30;54.70;;;31.22;36.20;94949.44;4891474;28;20227;-83
2021/06/18 10:24:00;;;;;;;5.00;4.50;;;30.40;54.20;;;31.27;36.15;94954.72;4742245;29;20249;-82
2021/06/18 10:28:10;;;;;;;6.22;4.63;;;30.40;54.20;;;31.30;35.33;94956.75;5149706;27;20634;-83
2021/06/18 10:30:57;;;;;;;7.25;4.38;;;30.50;53.80;;;31.35;36.08;94955.00;5068043;28;20204;-83
2021/06/18 10:33:26;;;;;;;5.55;4.68;;;30.50;54.40;;;31.42;35.35;94958.00;5067045;27;20270;-82
2021/06/18 10:36:05;;;;;;;5.60;4.43;;;30.60;53.90;;;31.46;35.96;94951.59;5148183;27;20215;-83
2021/06/18 10:38:42;;;;;;;6.50;4.30;;;30.60;54.00;;;31.51;35.38;94944.44;5114166;28;20280;-83
2021/06/18 10:41:18;;;;;;;4.90;4.40;;;30.70;54.00;;;31.55;35.38;94948.84;4989589;28;20198;-82
2021/06/18 10:43:52;;;;;;;5.38;4.57;;;30.70;54.00;;;31.62;35.32;94953.78;4868673;29;20744;-83
2021/06/18 10:47:30;;;;;;;5.03;4.25;;;30.70;53.80;;;31.69;35.24;94947.88;5150395;27;20639;-83
2021/06/18 10:49:58;;;;;;;5.25;4.72;;;30.80;53.80;;;31.75;35.32;94947.38;5107962;28;20264;-82
2021/06/18 10:52:35;;;;;;;4.85;4.45;;;30.90;53.40;;;31.81;35.09;94942.56;5084733;28;20712;-82
2021/06/18 10:55:01;;;;;;;4.80;4.28;;;30.90;53.50;;;31.86;35.24;94947.78;5010968;28;20709;-82
2021/06/18 10:57:29;;;;;;;4.80;4.30;;;31.00;53.50;;;31.91;34.82;94944.88;4996664;28;20211;-82
2021/06/18 11:00:09;;;;;;;5.18;4.63;;;31.00;53.20;;;31.93;34.83;94948.09;4961399;28;20594;-82
2021/06/18 11:02:41;;;;;;;5.55;4.63;;;31.00;53.10;;;31.97;35.35;94940.09;4922064;28;20210;-83
2021/06/18 11:05:25;;;;;;;4.50;4.10;;;31.10;53.20;;;32.04;35.37;94934.94;4778803;29;20257;-83
2021/06/18 11:08:26;;;;;;;5.07;4.22;;;31.20;53.30;;;32.12;35.14;94935.19;5149729;27;20400;-82
2021/06/18 11:11:26;;;;;;;5.18;4.40;;;31.20;53.00;;;32.20;34.64;94927.03;5045285;28;20215;-83
2021/06/18 11:14:06;;;;;;;4.70;4.30;;;31.30;53.40;;;32.31;35.04;94924.72;5012733;28;20248;-83
2021/06/18 11:16:38;;;;;;;6.45;4.28;;;31.40;53.10;;;32.43;34.96;94937.53;4998338;28;20267;-82
2021/06/18 11:19:26;;;;;;;5.20;4.40;;;31.50;53.00;;;32.51;34.65;94933.97;4905067;29;20322;-83
2021/06/18 11:21:55;;;;;;;6.03;3.92;;;31.60;53.10;;;32.63;34.68;94932.44;4741232;29;20706;-82
2021/06/18 11:24:40;;;;;;;4.72;4.22;;;31.70;52.40;;;32.76;33.91;94933.31;4667172;30;20323;-83
2021/06/18 11:29:42;;;;;;;4.78;4.35;;;31.70;52.40;;;32.99;33.64;94925.56;5135491;27;20659;-82
2021/06/18 11:32:43;;;;;;;4.72;4.22;;;31.90;51.90;;;33.08;33.96;94929.00;5105917;28;20197;-83
2021/06/18 11:35:31;;;;;;;5.40;4.90;;;32.00;52.20;;;33.12;32.87;94924.47;5051245;28;20688;-82
2021/06/18 11:38:17;;;;;;;5.75;4.50;;;32.20;51.40;;;33.13;33.08;94923.34;5062354;28;20215;-83